sensor_id;sensor_type;location;lat;lon;timestamp;temperature;humidity
1075;DHT22;526;51.392;12.448;2023-04-06T00:01:10;1.00;97.30
1075;DHT22;526;51.392;12.448;2023-04-06T00:03:36;1.00;97.30
1075;DHT22;526;51.392;12.448;2023-04-06T00:10:55;1.10;97.30
1075;DHT22;526;51.392;12.448;2023-04-06T00:13:20;1.10;97.30
1075;DHT22;526;51.392;12.448;2023-04-06T00:15:46;1.10;97.30
1075;DHT22;526;51.392;12.448;2023-04-06T00:18:11;1.10;97.30
1075;DHT22;526;51.392;12.448;2023-04-06T00:20:37;1.10;97.30
1075;DHT22;526;51.392;12.448;2023-04-06T00:23:02;1.10;97.30
1075;DHT22;526;51.392;12.448;2023-04-06T00:25:28;1.20;97.30
1075;DHT22;526;51.392;12.448;2023-04-06T00:27:53;1.20;97.30
1075;DHT22;526;51.392;12.448;2023-04-06T00:30:19;1.20;97.30
1075;DHT22;526;51.392;12.448;2023-04-06T00:32:45;1.20;97.30
1075;DHT22;526;51.392;12.448;2023-04-06T00:35:10;1.20;97.30
1075;DHT22;526;51.392;12.448;2023-04-06T00:37:36;1.30;97.30
1075;DHT22;526;51.392;12.448;2023-04-06T00:40:01;1.30;97.30
1075;DHT22;526;51.392;12.448;2023-04-06T00:42:27;1.30;97.30
1075;DHT22;526;51.392;12.448;2023-04-06T00:44:53;1.30;97.30
1075;DHT22;526;51.392;12.448;2023-04-06T00:47:19;1.30;97.30
1075;DHT22;526;51.392;12.448;2023-04-06T00:49:45;1.30;97.30
1075;DHT22;526;51.392;12.448;2023-04-06T00:52:10;1.30;97.30
1075;DHT22;526;51.392;12.448;2023-04-06T00:54:36;1.30;97.30
1075;DHT22;526;51.392;12.448;2023-04-06T00:57:01;1.40;97.30
1075;DHT22;526;51.392;12.448;2023-04-06T00:59:28;1.40;97.30
1075;DHT22;526;51.392;12.448;2023-04-06T01:01:54;1.40;97.30
1075;DHT22;526;51.392;12.448;2023-04-06T01:04:20;1.40;97.30
1075;DHT22;526;51.392;12.448;2023-04-06T01:06:48;1.40;97.30
1075;DHT22;526;51.392;12.448;2023-04-06T01:09:13;1.40;97.30
1075;DHT22;526;51.392;12.448;2023-04-06T01:11:39;1.50;97.30
1075;DHT22;526;51.392;12.448;2023-04-06T01:14:05;1.50;97.30
1075;DHT22;526;51.392;12.448;2023-04-06T01:16:30;1.60;97.30
1075;DHT22;526;51.392;12.448;2023-04-06T01:18:56;1.60;97.30
1075;DHT22;526;51.392;12.448;2023-04-06T01:21:22;1.60;97.30
1075;DHT22;526;51.392;12.448;2023-04-06T01:23:47;1.60;97.30
1075;DHT22;526;51.392;12.448;2023-04-06T01:26:13;1.70;97.30
1075;DHT22;526;51.392;12.448;2023-04-06T01:28:39;1.70;97.30
1075;DHT22;526;51.392;12.448;2023-04-06T01:31:07;1.70;97.30
1075;DHT22;526;51.392;12.448;2023-04-06T01:33:32;1.70;97.30
1075;DHT22;526;51.392;12.448;2023-04-06T01:35:58;1.70;97.30
1075;DHT22;526;51.392;12.448;2023-04-06T01:38:24;1.70;97.30
1075;DHT22;526;51.392;12.448;2023-04-06T01:40:49;1.80;97.30
1075;DHT22;526;51.392;12.448;2023-04-06T01:43:15;1.80;97.30
1075;DHT22;526;51.392;12.448;2023-04-06T01:45:41;1.80;97.30
1075;DHT22;526;51.392;12.448;2023-04-06T01:48:07;1.80;97.30
1075;DHT22;526;51.392;12.448;2023-04-06T01:50:32;1.80;97.30
1075;DHT22;526;51.392;12.448;2023-04-06T01:52:58;1.80;97.30
1075;DHT22;526;51.392;12.448;2023-04-06T01:55:23;1.90;97.30
1075;DHT22;526;51.392;12.448;2023-04-06T01:57:49;1.90;97.30
1075;DHT22;526;51.392;12.448;2023-04-06T02:00:15;1.90;97.30
1075;DHT22;526;51.392;12.448;2023-04-06T02:02:41;2.00;97.30
1075;DHT22;526;51.392;12.448;2023-04-06T02:05:07;2.00;97.30
1075;DHT22;526;51.392;12.448;2023-04-06T02:07:33;2.00;97.30
1075;DHT22;526;51.392;12.448;2023-04-06T02:09:58;2.00;97.30
1075;DHT22;526;51.392;12.448;2023-04-06T02:12:24;2.00;97.30
1075;DHT22;526;51.392;12.448;2023-04-06T02:14:49;2.00;97.30
1075;DHT22;526;51.392;12.448;2023-04-06T02:17:15;1.90;97.30
1075;DHT22;526;51.392;12.448;2023-04-06T02:19:40;2.00;97.30
1075;DHT22;526;51.392;12.448;2023-04-06T02:22:06;2.00;97.30
1075;DHT22;526;51.392;12.448;2023-04-06T02:24:32;2.00;97.30
1075;DHT22;526;51.392;12.448;2023-04-06T02:26:57;2.00;97.30
1075;DHT22;526;51.392;12.448;2023-04-06T02:29:22;2.00;97.30
1075;DHT22;526;51.392;12.448;2023-04-06T02:31:48;2.00;97.30
1075;DHT22;526;51.392;12.448;2023-04-06T02:34:13;2.00;97.30
1075;DHT22;526;51.392;12.448;2023-04-06T02:36:44;2.00;97.30
1075;DHT22;526;51.392;12.448;2023-04-06T02:39:10;2.00;97.30
1075;DHT22;526;51.392;12.448;2023-04-06T02:41:35;2.10;97.30
1075;DHT22;526;51.392;12.448;2023-04-06T02:44:01;2.10;97.30
1075;DHT22;526;51.392;12.448;2023-04-06T02:46:26;2.20;97.30
1075;DHT22;526;51.392;12.448;2023-04-06T02:51:20;2.20;97.30
1075;DHT22;526;51.392;12.448;2023-04-06T02:53:45;2.20;97.30
1075;DHT22;526;51.392;12.448;2023-04-06T02:56:11;2.20;97.30
1075;DHT22;526;51.392;12.448;2023-04-06T02:58:36;2.20;97.30
1075;DHT22;526;51.392;12.448;2023-04-06T03:01:02;2.30;97.30
1075;DHT22;526;51.392;12.448;2023-04-06T03:03:28;2.30;97.30
1075;DHT22;526;51.392;12.448;2023-04-06T03:05:54;2.30;97.30
1075;DHT22;526;51.392;12.448;2023-04-06T03:08:20;2.30;97.30
1075;DHT22;526;51.392;12.448;2023-04-06T03:10:45;2.30;97.30
1075;DHT22;526;51.392;12.448;2023-04-06T03:13:11;2.30;97.30
1075;DHT22;526;51.392;12.448;2023-04-06T03:15:36;2.20;97.30
1075;DHT22;526;51.392;12.448;2023-04-06T03:18:02;2.20;97.30
1075;DHT22;526;51.392;12.448;2023-04-06T03:20:27;2.20;97.30
1075;DHT22;526;51.392;12.448;2023-04-06T03:22:53;2.20;97.30
1075;DHT22;526;51.392;12.448;2023-04-06T03:25:18;2.20;97.30
1075;DHT22;526;51.392;12.448;2023-04-06T03:27:43;2.20;97.30
1075;DHT22;526;51.392;12.448;2023-04-06T03:30:09;2.20;97.30
1075;DHT22;526;51.392;12.448;2023-04-06T03:32:35;2.20;97.30
1075;DHT22;526;51.392;12.448;2023-04-06T03:35:01;2.20;97.30
1075;DHT22;526;51.392;12.448;2023-04-06T03:37:26;2.10;97.30
1075;DHT22;526;51.392;12.448;2023-04-06T03:39:52;2.10;97.30
1075;DHT22;526;51.392;12.448;2023-04-06T03:42:17;2.00;97.30
1075;DHT22;526;51.392;12.448;2023-04-06T03:44:43;2.00;97.30
1075;DHT22;526;51.392;12.448;2023-04-06T03:47:08;2.00;97.30
1075;DHT22;526;51.392;12.448;2023-04-06T03:49:34;2.00;97.30
1075;DHT22;526;51.392;12.448;2023-04-06T03:52:01;1.90;97.30
1075;DHT22;526;51.392;12.448;2023-04-06T03:54:26;1.90;97.30
1075;DHT22;526;51.392;12.448;2023-04-06T03:56:52;1.90;97.30
1075;DHT22;526;51.392;12.448;2023-04-06T03:59:17;1.80;97.30
1075;DHT22;526;51.392;12.448;2023-04-06T04:01:43;1.80;97.30
1075;DHT22;526;51.392;12.448;2023-04-06T04:04:08;1.80;97.30
1075;DHT22;526;51.392;12.448;2023-04-06T04:06:34;1.80;97.30
1075;DHT22;526;51.392;12.448;2023-04-06T04:09:01;1.70;97.30
1075;DHT22;526;51.392;12.448;2023-04-06T04:11:27;1.70;97.30
1075;DHT22;526;51.392;12.448;2023-04-06T04:13:53;1.70;97.30
1075;DHT22;526;51.392;12.448;2023-04-06T04:16:18;1.70;97.30
1075;DHT22;526;51.392;12.448;2023-04-06T04:18:44;1.60;97.30
1075;DHT22;526;51.392;12.448;2023-04-06T04:21:10;1.60;97.30
1075;DHT22;526;51.392;12.448;2023-04-06T04:23:36;1.60;97.30
1075;DHT22;526;51.392;12.448;2023-04-06T04:26:01;1.50;97.30
1075;DHT22;526;51.392;12.448;2023-04-06T04:28:27;1.50;97.30
1075;DHT22;526;51.392;12.448;2023-04-06T04:30:53;1.50;97.30
1075;DHT22;526;51.392;12.448;2023-04-06T04:33:21;1.50;97.30
1075;DHT22;526;51.392;12.448;2023-04-06T04:35:50;1.50;97.30
1075;DHT22;526;51.392;12.448;2023-04-06T04:41:22;1.50;97.30
1075;DHT22;526;51.392;12.448;2023-04-06T04:43:50;1.50;97.30
1075;DHT22;526;51.392;12.448;2023-04-06T04:46:26;1.40;97.30
1075;DHT22;526;51.392;12.448;2023-04-06T04:49:02;1.40;97.30
1075;DHT22;526;51.392;12.448;2023-04-06T04:51:56;1.40;97.30
1075;DHT22;526;51.392;12.448;2023-04-06T04:54:32;1.40;97.30
1075;DHT22;526;51.392;12.448;2023-04-06T04:57:00;1.40;97.30
1075;DHT22;526;51.392;12.448;2023-04-06T04:59:25;1.40;97.30
1075;DHT22;526;51.392;12.448;2023-04-06T05:01:51;1.50;97.30
1075;DHT22;526;51.392;12.448;2023-04-06T05:04:22;1.50;97.30
1075;DHT22;526;51.392;12.448;2023-04-06T05:07:10;1.50;97.30
1075;DHT22;526;51.392;12.448;2023-04-06T05:09:52;1.50;97.30
1075;DHT22;526;51.392;12.448;2023-04-06T05:15:40;1.50;97.30
1075;DHT22;526;51.392;12.448;2023-04-06T05:18:12;1.60;97.30
1075;DHT22;526;51.392;12.448;2023-04-06T05:20:42;1.60;97.30
1075;DHT22;526;51.392;12.448;2023-04-06T05:23:10;1.60;97.30
1075;DHT22;526;51.392;12.448;2023-04-06T05:25:41;1.60;97.30
1075;DHT22;526;51.392;12.448;2023-04-06T05:28:10;1.70;97.30
1075;DHT22;526;51.392;12.448;2023-04-06T05:30:44;1.70;97.30
1075;DHT22;526;51.392;12.448;2023-04-06T05:33:21;1.80;97.30
1075;DHT22;526;51.392;12.448;2023-04-06T05:36:10;1.80;97.30
1075;DHT22;526;51.392;12.448;2023-04-06T05:38:42;1.80;97.30
1075;DHT22;526;51.392;12.448;2023-04-06T05:41:10;1.90;97.30
1075;DHT22;526;51.392;12.448;2023-04-06T05:43:38;2.00;97.30
1075;DHT22;526;51.392;12.448;2023-04-06T05:46:10;2.00;97.30
1075;DHT22;526;51.392;12.448;2023-04-06T05:48:40;2.10;97.30
1075;DHT22;526;51.392;12.448;2023-04-06T05:54:32;2.20;97.30
1075;DHT22;526;51.392;12.448;2023-04-06T05:57:02;2.20;97.30
1075;DHT22;526;51.392;12.448;2023-04-06T05:59:31;2.30;97.30
1075;DHT22;526;51.392;12.448;2023-04-06T06:02:00;2.30;97.30
1075;DHT22;526;51.392;12.448;2023-04-06T06:04:26;2.40;97.30
1075;DHT22;526;51.392;12.448;2023-04-06T06:06:54;2.50;97.30
1075;DHT22;526;51.392;12.448;2023-04-06T06:09:20;2.50;97.30
1075;DHT22;526;51.392;12.448;2023-04-06T06:11:46;2.60;97.30
1075;DHT22;526;51.392;12.448;2023-04-06T06:14:11;2.70;97.30
1075;DHT22;526;51.392;12.448;2023-04-06T06:16:37;2.70;97.30
1075;DHT22;526;51.392;12.448;2023-04-06T06:19:03;2.80;97.30
1075;DHT22;526;51.392;12.448;2023-04-06T06:21:28;2.80;97.30
1075;DHT22;526;51.392;12.448;2023-04-06T06:23:54;3.00;97.30
1075;DHT22;526;51.392;12.448;2023-04-06T06:26:20;3.10;97.30
1075;DHT22;526;51.392;12.448;2023-04-06T06:28:45;3.20;97.30
1075;DHT22;526;51.392;12.448;2023-04-06T06:31:11;3.40;97.30
1075;DHT22;526;51.392;12.448;2023-04-06T06:33:36;3.50;97.30
1075;DHT22;526;51.392;12.448;2023-04-06T06:36:02;3.60;97.30
1075;DHT22;526;51.392;12.448;2023-04-06T06:38:27;3.80;97.30
1075;DHT22;526;51.392;12.448;2023-04-06T06:40:53;3.90;97.30
1075;DHT22;526;51.392;12.448;2023-04-06T06:43:18;4.00;97.30
1075;DHT22;526;51.392;12.448;2023-04-06T06:45:44;4.10;97.30
1075;DHT22;526;51.392;12.448;2023-04-06T06:48:09;4.10;97.30
1075;DHT22;526;51.392;12.448;2023-04-06T06:50:36;4.20;97.30
1075;DHT22;526;51.392;12.448;2023-04-06T06:53:01;4.40;95.80
1075;DHT22;526;51.392;12.448;2023-04-06T06:55:33;4.50;94.60
1075;DHT22;526;51.392;12.448;2023-04-06T06:58:23;4.60;94.30
1075;DHT22;526;51.392;12.448;2023-04-06T07:04:33;4.80;92.70
1075;DHT22;526;51.392;12.448;2023-04-06T07:07:01;4.90;93.50
1075;DHT22;526;51.392;12.448;2023-04-06T07:10:02;5.00;93.10
1075;DHT22;526;51.392;12.448;2023-04-06T07:13:05;5.10;93.00
1075;DHT22;526;51.392;12.448;2023-04-06T07:15:37;5.30;92.60
1075;DHT22;526;51.392;12.448;2023-04-06T07:18:02;5.40;92.60
1075;DHT22;526;51.392;12.448;2023-04-06T07:20:28;5.50;92.60
1075;DHT22;526;51.392;12.448;2023-04-06T07:22:54;5.60;92.70
1075;DHT22;526;51.392;12.448;2023-04-06T07:25:20;5.80;94.10
1075;DHT22;526;51.392;12.448;2023-04-06T07:27:45;5.90;93.20
1075;DHT22;526;51.392;12.448;2023-04-06T07:30:11;6.00;91.50
1075;DHT22;526;51.392;12.448;2023-04-06T07:32:37;6.20;90.20
1075;DHT22;526;51.392;12.448;2023-04-06T07:35:03;6.30;89.20
1075;DHT22;526;51.392;12.448;2023-04-06T07:37:28;6.50;87.50
1075;DHT22;526;51.392;12.448;2023-04-06T07:39:54;6.70;85.90
1075;DHT22;526;51.392;12.448;2023-04-06T07:42:19;6.80;84.50
1075;DHT22;526;51.392;12.448;2023-04-06T07:44:45;6.90;84.20
1075;DHT22;526;51.392;12.448;2023-04-06T07:47:10;7.00;84.30
1075;DHT22;526;51.392;12.448;2023-04-06T07:49:36;7.20;84.30
1075;DHT22;526;51.392;12.448;2023-04-06T07:52:01;7.30;84.20
1075;DHT22;526;51.392;12.448;2023-04-06T07:54:28;7.50;84.10
1075;DHT22;526;51.392;12.448;2023-04-06T07:56:53;7.60;83.00
1075;DHT22;526;51.392;12.448;2023-04-06T07:59:19;7.70;81.50
1075;DHT22;526;51.392;12.448;2023-04-06T08:01:44;7.80;82.20
1075;DHT22;526;51.392;12.448;2023-04-06T08:04:10;7.90;82.70
1075;DHT22;526;51.392;12.448;2023-04-06T08:06:35;8.10;82.90
1075;DHT22;526;51.392;12.448;2023-04-06T08:09:02;8.20;82.80
1075;DHT22;526;51.392;12.448;2023-04-06T08:11:28;8.30;81.10
1075;DHT22;526;51.392;12.448;2023-04-06T08:13:54;8.30;79.80
1075;DHT22;526;51.392;12.448;2023-04-06T08:16:20;8.30;79.40
1075;DHT22;526;51.392;12.448;2023-04-06T08:18:46;8.30;79.60
1075;DHT22;526;51.392;12.448;2023-04-06T08:21:11;8.40;80.40
1075;DHT22;526;51.392;12.448;2023-04-06T08:23:37;8.50;79.90
1075;DHT22;526;51.392;12.448;2023-04-06T08:26:02;8.60;79.00
1075;DHT22;526;51.392;12.448;2023-04-06T08:28:28;8.50;77.80
1075;DHT22;526;51.392;12.448;2023-04-06T08:30:53;8.60;79.80
1075;DHT22;526;51.392;12.448;2023-04-06T08:33:19;8.80;79.00
1075;DHT22;526;51.392;12.448;2023-04-06T08:35:44;8.90;79.00
1075;DHT22;526;51.392;12.448;2023-04-06T08:38:10;9.10;79.80
1075;DHT22;526;51.392;12.448;2023-04-06T08:40:37;9.30;79.10
1075;DHT22;526;51.392;12.448;2023-04-06T08:43:03;9.40;77.50
1075;DHT22;526;51.392;12.448;2023-04-06T08:45:33;9.50;78.60
1075;DHT22;526;51.392;12.448;2023-04-06T08:47:59;9.50;77.00
1075;DHT22;526;51.392;12.448;2023-04-06T08:50:29;9.50;77.60
1075;DHT22;526;51.392;12.448;2023-04-06T08:52:55;9.60;77.30
1075;DHT22;526;51.392;12.448;2023-04-06T08:55:21;9.70;77.80
1075;DHT22;526;51.392;12.448;2023-04-06T08:57:48;9.70;76.10
1075;DHT22;526;51.392;12.448;2023-04-06T09:00:14;9.80;76.80
1075;DHT22;526;51.392;12.448;2023-04-06T09:02:43;9.80;77.10
1075;DHT22;526;51.392;12.448;2023-04-06T09:05:09;9.90;76.90
1075;DHT22;526;51.392;12.448;2023-04-06T09:07:37;10.10;76.80
1075;DHT22;526;51.392;12.448;2023-04-06T09:10:05;10.20;76.80
1075;DHT22;526;51.392;12.448;2023-04-06T09:12:31;10.30;74.50
1075;DHT22;526;51.392;12.448;2023-04-06T09:14:58;10.30;75.20
1075;DHT22;526;51.392;12.448;2023-04-06T09:17:26;10.40;76.10
1075;DHT22;526;51.392;12.448;2023-04-06T09:19:52;10.50;74.50
1075;DHT22;526;51.392;12.448;2023-04-06T09:22:18;10.60;73.90
1075;DHT22;526;51.392;12.448;2023-04-06T09:24:52;10.60;74.40
1075;DHT22;526;51.392;12.448;2023-04-06T09:27:39;10.70;72.80
1075;DHT22;526;51.392;12.448;2023-04-06T09:30:11;10.70;74.50
1075;DHT22;526;51.392;12.448;2023-04-06T09:32:59;10.80;74.30
1075;DHT22;526;51.392;12.448;2023-04-06T09:35:25;11.00;74.60
1075;DHT22;526;51.392;12.448;2023-04-06T09:37:52;11.10;73.30
1075;DHT22;526;51.392;12.448;2023-04-06T09:40:19;11.20;72.10
1075;DHT22;526;51.392;12.448;2023-04-06T09:42:46;11.30;72.50
1075;DHT22;526;51.392;12.448;2023-04-06T09:45:13;11.30;73.10
1075;DHT22;526;51.392;12.448;2023-04-06T09:47:40;11.30;71.40
1075;DHT22;526;51.392;12.448;2023-04-06T09:50:07;11.40;71.40
1075;DHT22;526;51.392;12.448;2023-04-06T09:52:41;11.50;71.40
1075;DHT22;526;51.392;12.448;2023-04-06T09:55:08;11.50;70.60
1075;DHT22;526;51.392;12.448;2023-04-06T09:57:53;11.60;70.90
1075;DHT22;526;51.392;12.448;2023-04-06T10:00:22;11.70;70.30
1075;DHT22;526;51.392;12.448;2023-04-06T10:05:26;12.00;69.30
1075;DHT22;526;51.392;12.448;2023-04-06T10:07:57;12.10;69.90
1075;DHT22;526;51.392;12.448;2023-04-06T10:10:24;12.20;68.80
1075;DHT22;526;51.392;12.448;2023-04-06T10:12:50;12.40;70.40
1075;DHT22;526;51.392;12.448;2023-04-06T10:15:17;12.50;68.30
1075;DHT22;526;51.392;12.448;2023-04-06T10:17:43;12.40;68.90
1075;DHT22;526;51.392;12.448;2023-04-06T10:20:12;12.30;68.30
1075;DHT22;526;51.392;12.448;2023-04-06T10:22:55;12.00;69.10
1075;DHT22;526;51.392;12.448;2023-04-06T10:25:32;11.90;69.30
1075;DHT22;526;51.392;12.448;2023-04-06T10:28:05;11.90;68.30
1075;DHT22;526;51.392;12.448;2023-04-06T10:30:31;11.80;69.80
1075;DHT22;526;51.392;12.448;2023-04-06T10:32:57;11.90;69.10
1075;DHT22;526;51.392;12.448;2023-04-06T10:35:23;11.80;67.90
1075;DHT22;526;51.392;12.448;2023-04-06T10:38:00;11.70;68.00
1075;DHT22;526;51.392;12.448;2023-04-06T10:40:27;11.60;68.90
1075;DHT22;526;51.392;12.448;2023-04-06T10:42:54;11.80;69.50
1075;DHT22;526;51.392;12.448;2023-04-06T10:45:25;12.10;68.70
1075;DHT22;526;51.392;12.448;2023-04-06T10:47:54;12.30;69.20
1075;DHT22;526;51.392;12.448;2023-04-06T10:50:21;12.40;67.30
1075;DHT22;526;51.392;12.448;2023-04-06T10:52:58;12.60;68.10
1075;DHT22;526;51.392;12.448;2023-04-06T10:55:26;12.70;66.50
1075;DHT22;526;51.392;12.448;2023-04-06T10:57:51;12.90;66.80
1075;DHT22;526;51.392;12.448;2023-04-06T11:00:17;13.00;67.70
1075;DHT22;526;51.392;12.448;2023-04-06T11:02:44;13.00;67.10
1075;DHT22;526;51.392;12.448;2023-04-06T11:05:11;13.00;66.90
1075;DHT22;526;51.392;12.448;2023-04-06T11:07:37;13.10;68.80
1075;DHT22;526;51.392;12.448;2023-04-06T11:10:03;13.30;67.40
1075;DHT22;526;51.392;12.448;2023-04-06T11:12:29;13.40;67.50
1075;DHT22;526;51.392;12.448;2023-04-06T11:15:01;13.50;65.50
1075;DHT22;526;51.392;12.448;2023-04-06T11:17:36;13.50;64.70
1075;DHT22;526;51.392;12.448;2023-04-06T11:20:03;13.60;66.30
1075;DHT22;526;51.392;12.448;2023-04-06T11:22:30;13.60;66.40
1075;DHT22;526;51.392;12.448;2023-04-06T11:25:08;13.60;67.30
1075;DHT22;526;51.392;12.448;2023-04-06T11:27:34;13.60;67.10
1075;DHT22;526;51.392;12.448;2023-04-06T11:30:00;13.60;65.60
1075;DHT22;526;51.392;12.448;2023-04-06T11:32:26;13.50;65.00
1075;DHT22;526;51.392;12.448;2023-04-06T11:34:52;13.60;64.60
1075;DHT22;526;51.392;12.448;2023-04-06T11:37:18;13.80;66.60
1075;DHT22;526;51.392;12.448;2023-04-06T11:39:51;13.90;66.50
1075;DHT22;526;51.392;12.448;2023-04-06T11:42:24;14.00;64.50
1075;DHT22;526;51.392;12.448;2023-04-06T11:44:59;13.90;64.50
1075;DHT22;526;51.392;12.448;2023-04-06T11:47:36;13.90;64.80
1075;DHT22;526;51.392;12.448;2023-04-06T11:50:11;13.90;64.50
1075;DHT22;526;51.392;12.448;2023-04-06T11:52:37;14.00;65.80
1075;DHT22;526;51.392;12.448;2023-04-06T11:55:15;14.10;64.70
1075;DHT22;526;51.392;12.448;2023-04-06T11:57:41;14.30;66.10
1075;DHT22;526;51.392;12.448;2023-04-06T12:00:10;14.30;64.90
1075;DHT22;526;51.392;12.448;2023-04-06T12:02:37;14.30;63.80
1075;DHT22;526;51.392;12.448;2023-04-06T12:05:03;14.50;65.80
1075;DHT22;526;51.392;12.448;2023-04-06T12:07:29;14.60;64.60
1075;DHT22;526;51.392;12.448;2023-04-06T12:09:55;14.60;62.80
1075;DHT22;526;51.392;12.448;2023-04-06T12:12:21;14.60;63.00
1075;DHT22;526;51.392;12.448;2023-04-06T12:14:46;14.80;64.80
1075;DHT22;526;51.392;12.448;2023-04-06T12:17:12;14.90;63.70
1075;DHT22;526;51.392;12.448;2023-04-06T12:19:37;15.00;65.80
1075;DHT22;526;51.392;12.448;2023-04-06T12:22:03;15.30;64.80
1075;DHT22;526;51.392;12.448;2023-04-06T12:24:28;15.10;64.80
1075;DHT22;526;51.392;12.448;2023-04-06T12:26:54;15.30;64.90
1075;DHT22;526;51.392;12.448;2023-04-06T12:29:20;15.30;64.90
1075;DHT22;526;51.392;12.448;2023-04-06T12:31:46;15.40;63.50
1075;DHT22;526;51.392;12.448;2023-04-06T12:34:11;15.60;64.90
1075;DHT22;526;51.392;12.448;2023-04-06T12:36:38;15.70;65.00
1075;DHT22;526;51.392;12.448;2023-04-06T12:41:30;15.70;61.10
1075;DHT22;526;51.392;12.448;2023-04-06T12:43:56;15.40;60.20
1075;DHT22;526;51.392;12.448;2023-04-06T12:46:22;15.40;61.60
1075;DHT22;526;51.392;12.448;2023-04-06T12:48:48;15.30;60.40
1075;DHT22;526;51.392;12.448;2023-04-06T12:51:13;15.50;61.70
1075;DHT22;526;51.392;12.448;2023-04-06T12:53:39;15.70;60.00
1075;DHT22;526;51.392;12.448;2023-04-06T12:56:13;15.80;63.00
1075;DHT22;526;51.392;12.448;2023-04-06T12:58:39;16.00;61.50
1075;DHT22;526;51.392;12.448;2023-04-06T13:01:07;16.20;59.60
1075;DHT22;526;51.392;12.448;2023-04-06T13:03:33;16.20;60.50
1075;DHT22;526;51.392;12.448;2023-04-06T13:06:00;16.10;59.30
1075;DHT22;526;51.392;12.448;2023-04-06T13:08:25;16.30;60.70
1075;DHT22;526;51.392;12.448;2023-04-06T13:10:51;16.40;59.90
1075;DHT22;526;51.392;12.448;2023-04-06T13:13:28;16.30;59.40
1075;DHT22;526;51.392;12.448;2023-04-06T13:15:55;16.20;60.20
1075;DHT22;526;51.392;12.448;2023-04-06T13:18:21;16.30;61.10
1075;DHT22;526;51.392;12.448;2023-04-06T13:20:48;16.40;59.40
1075;DHT22;526;51.392;12.448;2023-04-06T13:23:13;16.10;57.50
1075;DHT22;526;51.392;12.448;2023-04-06T13:25:40;16.00;57.50
1075;DHT22;526;51.392;12.448;2023-04-06T13:28:05;15.70;58.80
1075;DHT22;526;51.392;12.448;2023-04-06T13:30:31;15.80;58.30
1075;DHT22;526;51.392;12.448;2023-04-06T13:32:56;16.10;59.00
1075;DHT22;526;51.392;12.448;2023-04-06T13:35:22;16.40;60.00
1075;DHT22;526;51.392;12.448;2023-04-06T13:37:47;16.40;60.20
1075;DHT22;526;51.392;12.448;2023-04-06T13:40:14;16.40;59.60
1075;DHT22;526;51.392;12.448;2023-04-06T13:42:39;16.50;61.50
1075;DHT22;526;51.392;12.448;2023-04-06T13:45:07;16.70;62.10
1075;DHT22;526;51.392;12.448;2023-04-06T13:47:33;16.80;59.70
1075;DHT22;526;51.392;12.448;2023-04-06T13:49:58;16.80;61.90
1075;DHT22;526;51.392;12.448;2023-04-06T13:52:24;17.00;61.00
1075;DHT22;526;51.392;12.448;2023-04-06T13:54:50;17.00;62.00
1075;DHT22;526;51.392;12.448;2023-04-06T13:57:16;16.80;60.60
1075;DHT22;526;51.392;12.448;2023-04-06T13:59:46;16.50;59.80
1075;DHT22;526;51.392;12.448;2023-04-06T14:02:44;16.50;60.20
1075;DHT22;526;51.392;12.448;2023-04-06T14:05:20;16.60;60.30
1075;DHT22;526;51.392;12.448;2023-04-06T14:07:54;17.00;63.10
1075;DHT22;526;51.392;12.448;2023-04-06T14:10:19;17.00;60.70
1075;DHT22;526;51.392;12.448;2023-04-06T14:12:48;16.90;60.20
1075;DHT22;526;51.392;12.448;2023-04-06T14:15:13;16.70;59.80
1075;DHT22;526;51.392;12.448;2023-04-06T14:17:39;16.80;60.80
1075;DHT22;526;51.392;12.448;2023-04-06T14:20:06;16.80;60.50
1075;DHT22;526;51.392;12.448;2023-04-06T14:22:32;17.00;60.80
1075;DHT22;526;51.392;12.448;2023-04-06T14:24:57;17.20;60.00
1075;DHT22;526;51.392;12.448;2023-04-06T14:27:23;17.40;58.80
1075;DHT22;526;51.392;12.448;2023-04-06T14:29:49;17.40;58.70
1075;DHT22;526;51.392;12.448;2023-04-06T14:32:15;17.50;57.90
1075;DHT22;526;51.392;12.448;2023-04-06T14:34:40;17.70;58.30
1075;DHT22;526;51.392;12.448;2023-04-06T14:37:06;17.70;59.30
1075;DHT22;526;51.392;12.448;2023-04-06T14:39:31;17.80;60.20
1075;DHT22;526;51.392;12.448;2023-04-06T14:41:57;17.70;59.30
1075;DHT22;526;51.392;12.448;2023-04-06T14:44:22;17.70;58.50
1075;DHT22;526;51.392;12.448;2023-04-06T14:46:48;17.80;58.80
1075;DHT22;526;51.392;12.448;2023-04-06T14:49:13;17.60;58.70
1075;DHT22;526;51.392;12.448;2023-04-06T14:51:38;17.60;58.20
1075;DHT22;526;51.392;12.448;2023-04-06T14:54:05;17.50;59.30
1075;DHT22;526;51.392;12.448;2023-04-06T14:56:30;17.40;58.50
1075;DHT22;526;51.392;12.448;2023-04-06T14:58:58;17.40;58.10
1075;DHT22;526;51.392;12.448;2023-04-06T15:01:24;17.60;59.10
1075;DHT22;526;51.392;12.448;2023-04-06T15:03:50;17.70;58.30
1075;DHT22;526;51.392;12.448;2023-04-06T15:06:17;17.80;58.60
1075;DHT22;526;51.392;12.448;2023-04-06T15:08:43;18.00;58.20
1075;DHT22;526;51.392;12.448;2023-04-06T15:11:10;17.90;57.50
1075;DHT22;526;51.392;12.448;2023-04-06T15:13:36;18.10;59.30
1075;DHT22;526;51.392;12.448;2023-04-06T15:16:01;18.20;58.40
1075;DHT22;526;51.392;12.448;2023-04-06T15:18:27;18.30;58.30
1075;DHT22;526;51.392;12.448;2023-04-06T15:20:53;18.10;57.40
1075;DHT22;526;51.392;12.448;2023-04-06T15:23:18;18.20;57.90
1075;DHT22;526;51.392;12.448;2023-04-06T15:25:44;18.30;58.20
1075;DHT22;526;51.392;12.448;2023-04-06T15:28:09;18.40;57.50
1075;DHT22;526;51.392;12.448;2023-04-06T15:30:35;17.80;56.20
1075;DHT22;526;51.392;12.448;2023-04-06T15:33:01;17.70;58.30
1075;DHT22;526;51.392;12.448;2023-04-06T15:35:29;17.70;57.80
1075;DHT22;526;51.392;12.448;2023-04-06T15:37:55;17.70;57.20
1075;DHT22;526;51.392;12.448;2023-04-06T15:40:21;18.10;57.70
1075;DHT22;526;51.392;12.448;2023-04-06T15:42:47;17.90;57.10
1075;DHT22;526;51.392;12.448;2023-04-06T15:45:13;17.60;57.80
1075;DHT22;526;51.392;12.448;2023-04-06T15:47:40;17.30;58.30
1075;DHT22;526;51.392;12.448;2023-04-06T15:50:07;17.40;58.90
1075;DHT22;526;51.392;12.448;2023-04-06T15:52:33;17.40;58.50
1075;DHT22;526;51.392;12.448;2023-04-06T15:54:59;17.50;58.40
1075;DHT22;526;51.392;12.448;2023-04-06T15:57:24;17.40;58.20
1075;DHT22;526;51.392;12.448;2023-04-06T15:59:50;17.40;57.60
1075;DHT22;526;51.392;12.448;2023-04-06T16:02:16;17.60;57.80
1075;DHT22;526;51.392;12.448;2023-04-06T16:04:42;17.80;56.90
1075;DHT22;526;51.392;12.448;2023-04-06T16:07:07;18.00;57.60
1075;DHT22;526;51.392;12.448;2023-04-06T16:09:33;18.30;57.20
1075;DHT22;526;51.392;12.448;2023-04-06T16:11:58;18.40;56.70
1075;DHT22;526;51.392;12.448;2023-04-06T16:14:24;18.40;57.60
1075;DHT22;526;51.392;12.448;2023-04-06T16:16:49;18.40;57.60
1075;DHT22;526;51.392;12.448;2023-04-06T16:19:15;18.40;57.70
1075;DHT22;526;51.392;12.448;2023-04-06T16:21:41;18.40;58.30
1075;DHT22;526;51.392;12.448;2023-04-06T16:24:07;18.30;58.60
1075;DHT22;526;51.392;12.448;2023-04-06T16:26:33;18.00;59.00
1075;DHT22;526;51.392;12.448;2023-04-06T16:28:58;17.90;59.30
1075;DHT22;526;51.392;12.448;2023-04-06T16:31:24;17.70;59.80
1075;DHT22;526;51.392;12.448;2023-04-06T16:33:51;17.40;60.00
1075;DHT22;526;51.392;12.448;2023-04-06T16:36:25;17.20;60.80